Time;durP1;ratioP1;P1;durP2;ratioP2;P2;SDS_P1;SDS_P2;PMS_P1;PMS_P2;Temp;Humidity;BMP_temperature;BMP_pressure;BME280_temperature;BME280_humidity;BME280_pressure;Samples;Min_cycle;Max_cycle;Signal;HPM_P1;HPM_P2
2022/12/25 00:01:49;;;;;;;25.00;11.17;;;5.90;99.90;;;;;;5052142;28;20236;-51
2022/12/25 00:04:19;;;;;;;28.50;11.93;;;5.90;99.90;;;;;;5052534;28;20474;-49
2022/12/25 00:06:47;;;;;;;25.40;10.83;;;5.80;99.90;;;;;;5052231;28;20617;-51
2022/12/25 00:09:15;;;;;;;33.10;11.73;;;5.80;99.90;;;;;;5052588;28;20224;-50
2022/12/25 00:11:43;;;;;;;29.27;11.70;;;5.80;99.90;;;;;;5052696;28;20989;-48
2022/12/25 00:14:11;;;;;;;28.17;11.80;;;5.80;99.90;;;;;;5052863;28;20586;-48
2022/12/25 00:16:39;;;;;;;25.53;11.03;;;5.80;99.90;;;;;;5052487;28;20223;-52
2022/12/25 00:19:07;;;;;;;23.83;9.97;;;5.80;99.90;;;;;;5052639;28;20493;-48
2022/12/25 00:21:36;;;;;;;24.77;11.47;;;5.80;99.90;;;;;;5052512;28;20474;-51
2022/12/25 00:24:05;;;;;;;28.07;11.50;;;5.80;99.90;;;;;;5052478;28;20234;-51
2022/12/25 00:26:33;;;;;;;26.23;11.87;;;5.70;99.90;;;;;;5052559;28;20473;-49
2022/12/25 00:29:01;;;;;;;31.60;12.40;;;5.70;99.90;;;;;;5052529;28;20463;-50
2022/12/25 00:31:29;;;;;;;23.40;11.57;;;5.70;99.90;;;;;;5051709;28;20480;-50
2022/12/25 00:33:57;;;;;;;31.03;13.30;;;5.70;99.90;;;;;;5052152;28;20520;-50
2022/12/25 00:36:25;;;;;;;34.73;15.07;;;5.60;99.90;;;;;;5051441;28;20838;-50
2022/12/25 00:38:55;;;;;;;31.13;13.83;;;5.60;99.90;;;;;;5052376;28;20493;-50
2022/12/25 00:44:06;;;;;;;30.30;14.07;;;5.50;99.90;;;;;;5032216;28;20227;-49
2022/12/25 00:46:34;;;;;;;25.63;14.07;;;5.50;99.90;;;;;;5032475;28;20468;-51
2022/12/25 00:49:02;;;;;;;31.47;15.23;;;5.50;99.90;;;;;;5032374;28;20478;-50
2022/12/25 00:51:30;;;;;;;27.60;13.07;;;5.50;99.90;;;;;;5032103;28;20461;-52
2022/12/25 00:54:00;;;;;;;33.20;13.70;;;5.40;99.90;;;;;;5032555;28;20830;-48
2022/12/25 00:56:28;;;;;;;27.60;13.13;;;5.40;99.90;;;;;;5035419;28;20835;-50
2022/12/25 00:58:56;;;;;;;26.80;13.53;;;5.30;99.90;;;;;;5056010;28;20494;-48
2022/12/25 01:01:24;;;;;;;30.80;13.93;;;5.30;99.90;;;;;;5055708;28;20519;-51
2022/12/25 01:03:52;;;;;;;37.00;14.70;;;5.30;99.90;;;;;;5056012;28;20468;-50
2022/12/25 01:06:20;;;;;;;37.83;15.97;;;5.30;99.90;;;;;;5055948;28;20464;-49
2022/12/25 01:11:32;;;;;;;38.27;15.73;;;5.20;99.90;;;;;;5054917;28;20979;-50
2022/12/25 01:14:00;;;;;;;36.60;15.70;;;5.20;99.90;;;;;;5056121;28;20473;-49
2022/12/25 01:16:28;;;;;;;30.80;14.87;;;5.30;99.90;;;;;;5055506;28;20460;-50
2022/12/25 01:18:56;;;;;;;35.07;15.57;;;5.30;99.90;;;;;;5055514;28;20558;-50
2022/12/25 01:21:25;;;;;;;37.90;15.10;;;5.40;99.90;;;;;;5055482;28;20462;-51
2022/12/25 01:23:53;;;;;;;31.87;15.23;;;5.50;99.90;;;;;;5055799;28;20477;-48
2022/12/25 01:26:23;;;;;;;35.13;15.70;;;5.50;99.90;;;;;;5054482;28;20561;-51
2022/12/25 01:28:53;;;;;;;30.47;15.43;;;5.50;99.90;;;;;;5053359;28;20500;-51
2022/12/25 01:31:24;;;;;;;39.77;17.87;;;5.50;99.90;;;;;;5055114;28;20232;-50
2022/12/25 01:33:52;;;;;;;31.70;15.47;;;5.50;99.90;;;;;;5055456;28;20470;-49
2022/12/25 01:36:22;;;;;;;31.73;15.87;;;5.40;99.90;;;;;;5055516;28;20465;-51
2022/12/25 01:38:51;;;;;;;27.23;15.03;;;5.40;99.90;;;;;;5054888;28;20489;-50
2022/12/25 01:41:21;;;;;;;36.47;16.93;;;5.30;99.90;;;;;;5055260;28;20236;-52
2022/12/25 01:44:03;;;;;;;32.37;15.53;;;5.30;99.90;;;;;;5055237;28;20512;-47
2022/12/25 01:46:31;;;;;;;41.87;17.57;;;5.20;99.90;;;;;;5055152;28;20710;-47
2022/12/25 01:49:04;;;;;;;34.60;15.47;;;5.20;99.90;;;;;;5055486;28;20462;-51
2022/12/25 01:51:38;;;;;;;36.50;16.83;;;5.10;99.90;;;;;;5054843;28;20505;-51
2022/12/25 01:54:12;;;;;;;31.20;17.13;;;5.20;99.90;;;;;;5055085;28;20465;-49
2022/12/25 01:56:42;;;;;;;32.10;16.60;;;5.20;99.90;;;;;;5051558;28;20290;-51
2022/12/25 01:59:14;;;;;;;33.53;17.50;;;5.30;99.90;;;;;;5054887;28;20474;-51
2022/12/25 02:01:42;;;;;;;32.90;15.20;;;5.30;99.90;;;;;;5054564;28;20505;-50
2022/12/25 02:04:19;;;;;;;29.80;15.10;;;5.30;99.90;;;;;;5046657;28;20477;-51
2022/12/25 02:06:49;;;;;;;31.70;15.47;;;5.30;99.90;;;;;;5054374;28;20479;-50
2022/12/25 02:09:18;;;;;;;32.47;14.57;;;5.30;99.90;;;;;;5054735;28;20870;-52
2022/12/25 02:11:58;;;;;;;27.67;13.47;;;5.30;99.90;;;;;;5054826;28;20465;-50
2022/12/25 02:14:32;;;;;;;34.47;14.17;;;5.40;99.90;;;;;;5054508;28;20561;-47
2022/12/25 02:17:07;;;;;;;26.77;13.83;;;5.30;99.90;;;;;;5054877;28;20469;-50
2022/12/25 02:19:52;;;;;;;29.07;14.03;;;5.30;99.90;;;;;;5054225;28;20848;-50
2022/12/25 02:22:31;;;;;;;32.73;14.30;;;5.30;99.90;;;;;;5054516;28;20465;-50
2022/12/25 02:25:17;;;;;;;27.83;14.87;;;5.30;99.90;;;;;;5054587;28;20473;-51
2022/12/25 02:28:09;;;;;;;28.43;13.20;;;5.30;99.90;;;;;;5050266;28;20456;-51
2022/12/25 02:30:42;;;;;;;34.37;15.17;;;5.30;99.90;;;;;;5053558;28;20983;-48
2022/12/25 02:36:06;;;;;;;31.83;15.17;;;5.20;99.90;;;;;;5054168;28;20553;-50
2022/12/25 02:39:56;;;;;;;31.53;14.73;;;5.10;99.90;;;;;;5053755;28;20482;-48
2022/12/25 02:41:33;;;;;;;31.40;15.23;;;5.10;99.90;;;;;;5053237;28;20474;-48
2022/12/25 03:12:20;;;;;;;37.60;15.00;;;4.90;99.90;;;;;;5053740;28;20981;-51
2022/12/25 03:17:36;;;;;;;37.37;16.90;;;5.10;99.90;;;;;;5053255;28;20456;-50
2022/12/25 03:28:24;;;;;;;35.57;16.47;;;5.10;99.90;;;;;;5050881;28;20500;-49
2022/12/25 03:31:12;;;;;;;33.60;15.47;;;5.10;99.90;;;;;;5052647;28;20475;-51
2022/12/25 03:37:21;;;;;;;35.73;16.33;;;5.20;99.90;;;;;;5039086;28;20999;-51
2022/12/25 04:36:11;;;;;;;34.43;16.83;;;5.40;99.90;;;;;;5055441;28;20466;-49
2022/12/25 04:38:40;;;;;;;31.43;16.83;;;5.40;99.90;;;;;;5051948;28;20508;-50
2022/12/25 04:41:11;;;;;;;40.17;16.67;;;5.40;99.90;;;;;;5056575;28;20483;-51
2022/12/25 04:43:40;;;;;;;46.00;16.67;;;5.40;99.90;;;;;;5056470;28;20469;-50
2022/12/25 04:46:08;;;;;;;38.47;16.77;;;5.40;99.90;;;;;;5056285;28;20988;-50
2022/12/25 04:48:36;;;;;;;40.63;16.47;;;5.40;99.90;;;;;;5056367;28;20492;-49
2022/12/25 04:51:14;;;;;;;38.60;15.60;;;5.40;99.90;;;;;;5056299;28;20467;-50
2022/12/25 04:53:43;;;;;;;43.80;16.80;;;5.50;99.90;;;;;;5056128;28;20512;-50
2022/12/25 04:56:17;;;;;;;37.83;15.23;;;5.50;99.90;;;;;;5055892;28;20231;-50
2022/12/25 04:58:46;;;;;;;37.60;16.73;;;5.50;99.90;;;;;;5052501;28;20465;-48
2022/12/25 05:01:14;;;;;;;39.47;15.77;;;5.50;99.90;;;;;;5055871;28;20543;-48
2022/12/25 05:03:42;;;;;;;34.97;15.53;;;5.40;99.90;;;;;;5055806;28;20471;-50
2022/12/25 05:06:11;;;;;;;33.50;15.00;;;5.40;99.90;;;;;;5036141;28;20743;-50
2022/12/25 05:08:39;;;;;;;31.53;14.23;;;5.40;99.90;;;;;;5051410;28;20484;-49
2022/12/25 05:11:08;;;;;;;37.60;15.70;;;5.40;99.90;;;;;;5055774;28;20476;-52
2022/12/25 05:13:38;;;;;;;37.83;15.23;;;5.40;99.90;;;;;;5055701;28;20830;-49
2022/12/25 05:16:07;;;;;;;39.50;15.07;;;5.50;99.90;;;;;;5056090;28;20987;-52
2022/12/25 05:18:35;;;;;;;32.70;14.33;;;5.50;99.90;;;;;;5055499;28;20502;-51
2022/12/25 05:21:04;;;;;;;35.27;15.87;;;5.40;99.90;;;;;;5054853;28;20485;-51
2022/12/25 05:23:33;;;;;;;35.07;14.23;;;5.40;99.90;;;;;;5055383;28;20500;-49
2022/12/25 05:26:04;;;;;;;34.37;14.97;;;5.50;99.90;;;;;;5055529;28;20466;-49
2022/12/25 05:28:34;;;;;;;30.40;15.10;;;5.50;99.90;;;;;;5055232;28;20977;-51
2022/12/25 05:31:03;;;;;;;35.47;15.90;;;5.50;99.90;;;;;;5055225;28;20844;-51
2022/12/25 05:33:31;;;;;;;35.90;15.00;;;5.50;99.90;;;;;;5055228;28;20246;-50
2022/12/25 05:36:02;;;;;;;35.43;15.10;;;5.50;99.90;;;;;;5055532;28;20470;-51
2022/12/25 05:38:30;;;;;;;39.57;15.37;;;5.50;99.90;;;;;;5055035;28;20476;-51
2022/12/25 05:40:58;;;;;;;34.67;13.83;;;5.40;99.90;;;;;;5055260;28;20999;-50
2022/12/25 05:43:27;;;;;;;40.07;14.63;;;5.40;99.90;;;;;;5036560;28;20237;-50
2022/12/25 05:45:55;;;;;;;38.40;14.27;;;5.40;99.90;;;;;;5035296;28;20224;-50
2022/12/25 05:48:24;;;;;;;33.50;14.53;;;5.40;99.90;;;;;;5035560;28;20478;-51
2022/12/25 05:50:52;;;;;;;33.67;14.33;;;5.40;99.90;;;;;;5035472;28;20482;-50
2022/12/25 05:53:20;;;;;;;36.40;14.37;;;5.40;99.90;;;;;;5048654;28;20461;-50
2022/12/25 05:55:48;;;;;;;39.73;14.33;;;5.40;99.90;;;;;;5054590;28;20466;-50
2022/12/25 05:58:16;;;;;;;40.43;15.17;;;5.50;99.90;;;;;;5055123;28;20458;-49
2022/12/25 06:00:44;;;;;;;35.70;15.13;;;5.50;99.90;;;;;;5054290;28;20466;-50
2022/12/25 06:03:12;;;;;;;34.10;13.77;;;5.40;99.90;;;;;;5055104;28;20466;-50
2022/12/25 06:05:42;;;;;;;35.33;14.00;;;5.40;99.90;;;;;;5054720;28;20231;-50
2022/12/25 06:08:10;;;;;;;35.87;13.77;;;5.50;99.90;;;;;;5054899;28;20824;-49
2022/12/25 06:10:38;;;;;;;44.50;15.53;;;5.50;99.90;;;;;;5054889;28;20477;-51
2022/12/25 06:13:06;;;;;;;37.73;14.87;;;5.50;99.90;;;;;;5054587;28;20480;-50
2022/12/25 06:15:34;;;;;;;43.80;15.27;;;5.50;99.90;;;;;;5054633;28;20238;-50
2022/12/25 06:18:02;;;;;;;35.67;14.77;;;5.60;99.90;;;;;;5054909;28;20515;-50
2022/12/25 06:20:30;;;;;;;37.90;15.10;;;5.60;99.90;;;;;;5054154;28;20252;-48
2022/12/25 06:23:00;;;;;;;42.83;15.80;;;5.70;99.90;;;;;;5054516;28;20465;-51
2022/12/25 06:25:28;;;;;;;32.60;13.63;;;5.70;99.90;;;;;;5054255;28;20474;-48
2022/12/25 06:27:56;;;;;;;35.40;13.87;;;5.70;99.90;;;;;;5054237;28;20239;-52
2022/12/25 06:30:24;;;;;;;33.50;13.17;;;5.70;99.90;;;;;;5053743;28;20834;-49
2022/12/25 06:32:52;;;;;;;36.70;14.37;;;5.70;99.90;;;;;;5054175;28;20457;-51
2022/12/25 06:35:20;;;;;;;26.60;13.73;;;5.70;99.90;;;;;;5054141;28;20714;-50
2022/12/25 06:37:48;;;;;;;37.67;14.23;;;5.60;99.90;;;;;;5054317;28;20466;-52
2022/12/25 06:40:18;;;;;;;32.40;13.10;;;5.60;99.90;;;;;;5054215;28;20478;-50
2022/12/25 06:42:46;;;;;;;39.57;13.93;;;5.70;99.90;;;;;;5050277;28;20550;-51
2022/12/25 06:45:14;;;;;;;33.40;14.33;;;5.70;99.90;;;;;;5054516;28;20235;-47
2022/12/25 06:47:44;;;;;;;30.43;12.73;;;5.80;99.90;;;;;;5054290;28;20466;-50
2022/12/25 06:50:12;;;;;;;33.97;12.40;;;5.80;99.90;;;;;;5053956;28;20559;-51
2022/12/25 06:52:40;;;;;;;34.20;13.20;;;5.90;99.90;;;;;;5053570;28;20473;-49
2022/12/25 06:55:09;;;;;;;36.93;12.17;;;5.90;99.90;;;;;;5052709;28;20695;-50
2022/12/25 06:57:39;;;;;;;30.00;13.67;;;5.90;99.90;;;;;;5053799;28;20965;-50
2022/12/25 07:00:08;;;;;;;26.03;11.73;;;5.90;99.90;;;;;;5053723;28;20486;-51
2022/12/25 07:02:37;;;;;;;31.90;11.77;;;5.90;99.90;;;;;;5053208;28;20502;-50
2022/12/25 07:05:06;;;;;;;26.37;11.97;;;5.90;99.90;;;;;;5053858;28;20659;-47
2022/12/25 07:07:34;;;;;;;29.43;12.03;;;6.00;99.90;;;;;;5053368;28;20463;-50
2022/12/25 07:10:02;;;;;;;36.50;11.57;;;6.00;99.90;;;;;;5053779;28;20473;-49
2022/12/25 07:12:30;;;;;;;33.03;12.43;;;6.00;99.90;;;;;;5059403;28;20824;-50
2022/12/25 07:14:59;;;;;;;25.77;12.20;;;6.10;99.90;;;;;;5065089;28;20469;-50
2022/12/25 07:17:27;;;;;;;28.07;12.70;;;6.10;99.90;;;;;;5073405;28;20651;-50
2022/12/25 07:19:56;;;;;;;29.37;10.97;;;6.10;99.90;;;;;;5073214;28;20493;-50
2022/12/25 07:22:24;;;;;;;27.83;11.40;;;6.10;99.90;;;;;;5061161;28;20228;-47
2022/12/25 07:24:52;;;;;;;33.67;11.60;;;6.20;99.90;;;;;;5052603;28;20501;-49
2022/12/25 07:27:20;;;;;;;35.37;12.67;;;6.10;99.90;;;;;;5049437;28;20227;-52
2022/12/25 07:29:48;;;;;;;37.23;12.13;;;6.20;99.90;;;;;;5053312;28;20220;-51
2022/12/25 07:32:17;;;;;;;26.17;10.83;;;6.10;99.90;;;;;;5052715;28;21009;-51
2022/12/25 07:34:45;;;;;;;28.60;11.13;;;6.20;99.90;;;;;;5052313;28;20230;-53
2022/12/25 07:37:13;;;;;;;30.30;11.93;;;6.20;99.90;;;;;;5052483;28;20461;-47
2022/12/25 07:39:41;;;;;;;25.40;11.07;;;6.20;99.90;;;;;;5052451;28;20250;-49
2022/12/25 07:42:09;;;;;;;26.80;11.57;;;6.20;99.90;;;;;;5052843;28;20489;-48
2022/12/25 07:44:37;;;;;;;26.67;11.07;;;6.30;99.90;;;;;;5052699;28;20472;-51
2022/12/25 07:47:06;;;;;;;22.60;10.60;;;6.30;99.90;;;;;;5052713;28;20484;-47
2022/12/25 07:49:36;;;;;;;30.40;11.37;;;6.30;99.90;;;;;;5052767;28;20465;-47
2022/12/25 07:52:04;;;;;;;33.07;11.43;;;6.30;99.90;;;;;;5052093;28;20473;-49
2022/12/25 07:54:32;;;;;;;29.63;10.80;;;6.30;99.90;;;;;;5052352;28;20244;-51
2022/12/25 07:57:00;;;;;;;31.13;10.83;;;6.30;99.90;;;;;;5049144;28;20978;-50
2022/12/25 07:59:28;;;;;;;28.87;10.70;;;6.30;99.90;;;;;;5052821;28;20714;-50
2022/12/25 08:01:56;;;;;;;26.47;11.13;;;6.30;99.90;;;;;;5051807;28;20478;-50
2022/12/25 08:04:25;;;;;;;26.20;9.90;;;6.30;99.90;;;;;;5052286;28;20226;-50
2022/12/25 08:06:54;;;;;;;26.67;11.17;;;6.30;99.90;;;;;;5052863;28;20962;-52
2022/12/25 08:09:22;;;;;;;27.17;10.43;;;6.30;99.90;;;;;;5052887;28;20238;-50
2022/12/25 08:11:50;;;;;;;39.50;11.47;;;6.40;99.90;;;;;;5052892;28;20576;-48
2022/12/25 08:14:18;;;;;;;27.53;11.37;;;6.40;99.90;;;;;;5052675;28;20500;-51
2022/12/25 08:16:46;;;;;;;24.57;10.17;;;6.50;99.90;;;;;;5052017;28;20989;-47
2022/12/25 08:19:14;;;;;;;27.77;10.53;;;6.40;99.90;;;;;;5052142;28;20600;-50
2022/12/25 08:21:42;;;;;;;30.23;10.63;;;6.40;99.90;;;;;;5052598;28;20699;-50
2022/12/25 08:24:12;;;;;;;26.47;10.10;;;6.60;99.90;;;;;;5044814;28;20231;-49
2022/12/25 08:26:40;;;;;;;26.20;9.90;;;6.60;99.90;;;;;;5052156;28;20528;-51
2022/12/25 08:29:08;;;;;;;24.70;9.93;;;6.60;99.90;;;;;;5052007;28;20615;-51
2022/12/25 08:31:36;;;;;;;28.87;9.93;;;6.50;99.90;;;;;;5050528;28;20236;-48
2022/12/25 08:34:13;;;;;;;28.40;10.63;;;6.50;99.90;;;;;;5052471;28;20345;-48
2022/12/25 08:36:44;;;;;;;26.37;10.07;;;6.50;99.90;;;;;;5040950;28;20231;-50
2022/12/25 08:39:14;;;;;;;29.87;11.07;;;6.50;99.90;;;;;;5057999;28;20576;-50
2022/12/25 08:41:42;;;;;;;22.03;9.47;;;6.50;99.90;;;;;;5058367;28;20224;-52
2022/12/25 08:44:11;;;;;;;27.63;9.90;;;6.50;99.90;;;;;;5058087;28;20246;-49
2022/12/25 08:46:40;;;;;;;28.47;10.57;;;6.60;99.90;;;;;;5062905;28;20314;-48
2022/12/25 08:49:08;;;;;;;26.03;10.23;;;6.60;99.90;;;;;;5062957;28;20223;-51
2022/12/25 08:51:36;;;;;;;20.87;10.30;;;6.60;99.90;;;;;;5064333;28;20230;-52
2022/12/25 08:54:05;;;;;;;25.87;10.77;;;6.70;99.90;;;;;;5065615;28;20232;-51
2022/12/25 08:56:35;;;;;;;29.27;10.77;;;6.70;99.90;;;;;;5063890;28;20227;-51
2022/12/25 08:59:03;;;;;;;20.60;10.07;;;6.70;99.90;;;;;;5064387;28;20231;-51
2022/12/25 09:01:31;;;;;;;24.13;9.73;;;6.80;99.90;;;;;;5062816;28;20617;-48
2022/12/25 09:03:59;;;;;;;25.63;9.53;;;6.70;99.90;;;;;;5066161;28;20756;-50
2022/12/25 09:06:27;;;;;;;21.97;9.87;;;6.80;99.90;;;;;;5065228;28;20225;-49
2022/12/25 09:08:55;;;;;;;25.13;10.77;;;6.90;99.90;;;;;;5066013;28;20318;-52
2022/12/25 09:11:23;;;;;;;26.13;11.00;;;6.90;99.90;;;;;;5066092;28;20230;-50
2022/12/25 09:13:53;;;;;;;27.77;10.93;;;6.90;99.90;;;;;;5064508;28;20263;-50
2022/12/25 09:16:22;;;;;;;23.30;9.90;;;6.90;99.90;;;;;;5064934;28;20290;-54
2022/12/25 09:18:50;;;;;;;22.97;10.27;;;6.90;99.90;;;;;;5067466;28;20250;-51
2022/12/25 09:21:19;;;;;;;23.93;10.37;;;7.00;99.90;;;;;;5066173;28;21363;-50
2022/12/25 09:23:47;;;;;;;26.83;10.30;;;7.00;99.90;;;;;;5068010;28;20405;-50
2022/12/25 09:26:17;;;;;;;21.13;10.03;;;6.90;99.90;;;;;;5064165;28;20575;-51
2022/12/25 09:28:46;;;;;;;23.20;9.67;;;6.90;99.90;;;;;;5062495;28;20599;-51
2022/12/25 09:31:22;;;;;;;22.33;9.33;;;7.00;99.90;;;;;;5061923;28;20232;-50
2022/12/25 09:33:50;;;;;;;21.47;9.97;;;7.00;99.90;;;;;;5060605;28;20223;-52
2022/12/25 09:36:20;;;;;;;19.73;8.60;;;7.00;99.90;;;;;;5062514;28;20232;-49
2022/12/25 09:38:48;;;;;;;22.43;9.60;;;7.00;99.90;;;;;;5060536;28;20228;-48
2022/12/25 09:41:22;;;;;;;23.80;9.53;;;7.00;99.90;;;;;;5059537;28;20224;-51
2022/12/25 09:43:52;;;;;;;29.10;9.53;;;7.10;99.90;;;;;;5062310;28;20922;-49
2022/12/25 09:46:26;;;;;;;21.13;9.43;;;7.10;99.90;;;;;;5063929;28;20717;-48
2022/12/25 09:49:08;;;;;;;21.77;8.90;;;7.10;99.90;;;;;;5062940;28;20310;-46
2022/12/25 09:51:40;;;;;;;18.00;7.90;;;7.10;99.90;;;;;;5060696;28;20223;-53
2022/12/25 09:54:17;;;;;;;22.03;9.37;;;7.10;99.90;;;;;;5063598;28;20230;-50
2022/12/25 09:56:45;;;;;;;24.20;9.03;;;7.20;99.90;;;;;;5063323;28;20689;-52
2022/12/25 09:59:21;;;;;;;21.00;9.90;;;7.20;99.90;;;;;;5061461;28;20223;-52
2022/12/25 10:02:15;;;;;;;20.97;9.37;;;7.10;99.90;;;;;;5059963;28;20223;-49
2022/12/25 10:05:04;;;;;;;21.37;9.03;;;7.20;99.90;;;;;;5060452;28;20226;-50
2022/12/25 10:07:41;;;;;;;23.10;10.43;;;7.20;99.90;;;;;;5062305;28;20230;-50
2022/12/25 10:10:33;;;;;;;21.60;9.87;;;7.20;99.90;;;;;;5062240;28;20223;-47
2022/12/25 10:13:09;;;;;;;19.17;9.53;;;7.20;99.90;;;;;;5062150;28;20216;-50
2022/12/25 10:15:46;;;;;;;18.43;8.60;;;7.20;99.90;;;;;;5065362;28;20345;-50
2022/12/25 10:18:37;;;;;;;22.43;9.60;;;7.20;99.90;;;;;;5066463;28;20702;-51
2022/12/25 10:21:10;;;;;;;21.73;9.27;;;7.20;99.90;;;;;;5062467;28;20250;-51
2022/12/25 10:23:43;;;;;;;20.87;9.40;;;7.20;99.90;;;;;;5062617;28;20252;-52
2022/12/25 10:26:16;;;;;;;21.70;10.10;;;7.20;99.90;;;;;;5062874;28;20223;-48
2022/12/25 10:28:46;;;;;;;20.07;9.23;;;7.20;99.90;;;;;;5067360;28;20702;-51
2022/12/25 10:31:19;;;;;;;20.40;9.90;;;7.30;99.90;;;;;;5066665;28;20231;-50
2022/12/25 10:33:51;;;;;;;21.03;9.80;;;7.30;99.90;;;;;;5065050;28;20231;-49
2022/12/25 10:36:22;;;;;;;22.30;9.83;;;7.30;99.90;;;;;;5067777;28;20243;-51
2022/12/25 10:38:50;;;;;;;19.10;9.77;;;7.30;99.90;;;;;;5068763;28;20588;-50
2022/12/25 10:41:33;;;;;;;19.33;10.13;;;7.30;99.90;;;;;;5065724;28;20230;-48
2022/12/25 10:44:11;;;;;;;21.33;9.60;;;7.30;99.90;;;;;;5065821;28;20254;-50
2022/12/25 10:46:40;;;;;;;18.07;8.97;;;7.40;99.90;;;;;;5064671;28;20238;-51
2022/12/25 10:49:15;;;;;;;19.37;10.20;;;7.40;99.90;;;;;;5068138;28;20222;-52
2022/12/25 10:51:43;;;;;;;24.23;10.60;;;7.40;99.90;;;;;;5064306;28;20310;-50
2022/12/25 10:54:23;;;;;;;21.83;10.43;;;7.40;99.90;;;;;;5068071;28;20234;-50
2022/12/25 10:57:00;;;;;;;21.50;10.63;;;7.30;99.90;;;;;;5065833;28;20694;-50
2022/12/25 10:59:30;;;;;;;22.67;9.20;;;7.30;99.90;;;;;;5066047;28;20218;-51
2022/12/25 11:02:13;;;;;;;19.50;9.90;;;7.40;99.90;;;;;;5065782;28;20836;-52
2022/12/25 11:04:43;;;;;;;21.57;9.70;;;7.50;99.90;;;;;;5066323;28;20245;-50
2022/12/25 11:07:22;;;;;;;19.93;9.80;;;7.50;99.90;;;;;;5068108;28;20245;-51
2022/12/25 11:09:51;;;;;;;17.33;9.53;;;7.50;99.90;;;;;;5064632;28;20246;-51
2022/12/25 11:12:29;;;;;;;25.43;10.30;;;7.50;99.90;;;;;;5049779;28;20247;-50
2022/12/25 11:15:00;;;;;;;18.83;9.77;;;7.50;99.90;;;;;;5067135;28;20724;-49
2022/12/25 11:17:28;;;;;;;14.03;8.93;;;7.50;99.90;;;;;;5066310;28;20227;-47
2022/12/25 11:19:59;;;;;;;18.03;9.93;;;7.50;99.90;;;;;;5067002;28;20234;-48
2022/12/25 11:22:28;;;;;;;17.90;9.17;;;7.50;99.90;;;;;;5065979;28;20574;-49
2022/12/25 11:24:57;;;;;;;19.07;9.40;;;7.50;99.90;;;;;;5065928;28;20289;-50
2022/12/25 11:27:27;;;;;;;21.33;10.20;;;7.50;99.90;;;;;;5065467;28;20235;-50
2022/12/25 11:29:59;;;;;;;20.90;9.60;;;7.50;99.90;;;;;;5066846;28;20232;-51
2022/12/25 11:32:32;;;;;;;17.00;9.30;;;7.60;99.90;;;;;;5065210;28;20227;-51
2022/12/25 11:35:03;;;;;;;18.23;8.60;;;7.60;99.90;;;;;;5066896;28;20230;-50
2022/12/25 11:37:38;;;;;;;22.23;9.40;;;7.60;99.90;;;;;;5065473;28;20230;-50
2022/12/25 11:40:13;;;;;;;17.90;9.53;;;7.60;99.90;;;;;;5066197;28;20567;-50
2022/12/25 11:42:45;;;;;;;18.00;9.83;;;7.70;99.90;;;;;;5049172;28;20226;-48
2022/12/25 11:45:18;;;;;;;18.20;8.67;;;7.60;99.90;;;;;;5065411;28;20636;-50
2022/12/25 11:47:49;;;;;;;17.83;9.20;;;7.70;99.90;;;;;;5066644;28;20769;-50
2022/12/25 11:50:27;;;;;;;17.03;8.97;;;7.60;99.90;;;;;;5065510;28;20230;-51
2022/12/25 11:52:55;;;;;;;18.30;9.57;;;7.60;99.90;;;;;;5067244;28;20215;-51
2022/12/25 11:55:31;;;;;;;19.00;9.50;;;7.70;99.90;;;;;;5067252;28;20234;-50
2022/12/25 11:58:06;;;;;;;20.60;9.50;;;7.70;99.90;;;;;;5066255;28;20223;-52
2022/12/25 12:00:35;;;;;;;21.10;10.10;;;7.80;99.90;;;;;;5064549;28;20241;-50
2022/12/25 12:03:09;;;;;;;20.27;10.00;;;7.80;99.90;;;;;;5061435;28;20220;-51
2022/12/25 12:05:45;;;;;;;19.50;9.63;;;7.70;99.90;;;;;;5066318;28;20699;-52
2022/12/25 12:08:14;;;;;;;22.83;10.83;;;7.70;99.90;;;;;;5063140;28;20219;-52
2022/12/25 12:10:57;;;;;;;20.77;9.83;;;7.70;99.90;;;;;;5065734;28;20694;-51
2022/12/25 12:13:35;;;;;;;18.83;10.77;;;7.70;99.90;;;;;;5065659;28;20586;-51
2022/12/25 12:16:04;;;;;;;18.33;10.20;;;7.70;99.90;;;;;;5064210;28;20238;-50
2022/12/25 12:18:34;;;;;;;17.80;10.03;;;7.70;99.90;;;;;;5064386;28;20223;-53
2022/12/25 12:21:07;;;;;;;18.37;9.93;;;7.70;99.90;;;;;;5067386;28;20228;-50
2022/12/25 12:23:50;;;;;;;20.07;9.60;;;7.70;99.90;;;;;;5062686;28;21627;-50
2022/12/25 12:26:20;;;;;;;15.90;9.67;;;7.70;99.90;;;;;;5066425;28;20681;-52
2022/12/25 12:28:50;;;;;;;16.50;9.40;;;7.70;99.90;;;;;;5066045;28;20584;-51
2022/12/25 12:31:18;;;;;;;16.60;9.70;;;7.70;99.90;;;;;;5065625;28;20241;-49
2022/12/25 12:33:53;;;;;;;17.83;9.63;;;7.80;99.90;;;;;;5059657;28;20298;-50
2022/12/25 12:36:25;;;;;;;19.40;10.00;;;7.70;99.90;;;;;;5065200;28;20637;-50
2022/12/25 12:39:04;;;;;;;20.83;9.33;;;7.80;99.90;;;;;;5060074;28;20228;-50
2022/12/25 12:41:46;;;;;;;15.77;10.03;;;7.80;99.90;;;;;;5052436;28;20274;-47
2022/12/25 12:44:17;;;;;;;17.83;9.63;;;7.80;99.90;;;;;;5052390;28;20230;-48
2022/12/25 12:46:53;;;;;;;21.30;9.83;;;7.80;99.90;;;;;;5052178;28;20232;-51
2022/12/25 12:49:23;;;;;;;18.17;9.53;;;7.80;99.90;;;;;;5047694;28;20232;-48
2022/12/25 12:52:05;;;;;;;18.27;9.83;;;7.90;99.90;;;;;;5033162;28;20681;-48
2022/12/25 12:54:48;;;;;;;19.60;10.00;;;7.80;99.90;;;;;;5055213;28;20228;-50
2022/12/25 12:57:25;;;;;;;17.43;9.87;;;7.80;99.90;;;;;;5056275;28;20234;-48
2022/12/25 12:59:53;;;;;;;19.27;9.20;;;7.80;99.90;;;;;;5054325;28;20227;-47
2022/12/25 13:03:01;;;;;;;17.93;10.10;;;7.80;99.90;;;;;;5055319;28;20235;-47
2022/12/25 13:05:38;;;;;;;21.87;9.80;;;7.90;99.90;;;;;;5050537;28;20252;-50
2022/12/25 13:08:20;;;;;;;21.27;10.30;;;7.90;99.90;;;;;;5056281;28;20226;-48
2022/12/25 13:10:50;;;;;;;16.20;9.43;;;7.80;99.90;;;;;;5056129;28;20235;-50
2022/12/25 13:13:22;;;;;;;18.10;9.93;;;7.90;99.90;;;;;;5056102;28;20240;-50
2022/12/25 13:15:51;;;;;;;17.60;9.57;;;7.90;99.90;;;;;;5054303;28;20223;-50
2022/12/25 13:18:20;;;;;;;19.90;10.23;;;7.90;99.90;;;;;;5054964;28;20230;-49
2022/12/25 13:20:53;;;;;;;18.87;10.23;;;7.90;99.90;;;;;;5035949;28;20233;-48
2022/12/25 13:23:31;;;;;;;18.97;10.87;;;7.90;99.90;;;;;;5035996;28;20572;-51
2022/12/25 13:26:01;;;;;;;17.53;10.40;;;8.00;99.90;;;;;;5053176;28;20289;-49
2022/12/25 13:28:32;;;;;;;15.20;9.60;;;8.00;99.90;;;;;;5050902;28;20560;-48
2022/12/25 13:31:07;;;;;;;15.63;8.50;;;8.00;99.90;;;;;;5060008;28;20228;-50
2022/12/25 13:33:35;;;;;;;20.20;9.07;;;8.00;99.90;;;;;;5065629;28;20226;-48
2022/12/25 13:36:04;;;;;;;16.03;9.17;;;8.00;99.90;;;;;;5062897;28;20821;-49
2022/12/25 13:38:34;;;;;;;16.37;9.03;;;8.00;99.90;;;;;;5070059;28;20690;-52
2022/12/25 13:43:49;;;;;;;17.03;8.93;;;8.00;99.90;;;;;;5064679;28;20227;-50
2022/12/25 13:46:26;;;;;;;16.87;8.33;;;8.00;99.90;;;;;;5067735;28;20231;-49
2022/12/25 13:48:59;;;;;;;17.30;9.93;;;8.00;99.90;;;;;;5068777;28;20551;-47
2022/12/25 13:51:29;;;;;;;16.97;9.57;;;8.00;99.90;;;;;;5067179;28;20288;-50
2022/12/25 13:54:05;;;;;;;20.27;9.53;;;8.00;99.90;;;;;;5069254;28;20276;-51
2022/12/25 13:56:35;;;;;;;17.97;9.40;;;8.00;99.90;;;;;;5065763;28;20245;-50
2022/12/25 13:59:03;;;;;;;17.90;9.50;;;8.00;99.90;;;;;;5066745;28;20231;-52
2022/12/25 14:01:31;;;;;;;16.87;10.20;;;7.90;99.90;;;;;;5063773;28;20236;-49
2022/12/25 14:04:00;;;;;;;14.37;9.93;;;7.90;99.90;;;;;;5059474;28;20703;-50
2022/12/25 14:06:30;;;;;;;15.20;8.63;;;8.00;99.90;;;;;;5059946;28;20228;-47
2022/12/25 14:08:59;;;;;;;18.83;9.47;;;7.90;99.90;;;;;;5059736;28;20733;-51
2022/12/25 14:11:31;;;;;;;19.53;9.87;;;7.90;99.90;;;;;;5060832;28;20296;-50
2022/12/25 14:14:02;;;;;;;16.93;9.97;;;7.90;99.90;;;;;;5060845;28;20587;-49
2022/12/25 14:16:30;;;;;;;17.07;10.10;;;7.90;99.90;;;;;;5061720;28;20583;-48
2022/12/25 14:19:00;;;;;;;17.73;10.73;;;7.90;99.90;;;;;;5061202;28;20351;-50
2022/12/25 14:21:31;;;;;;;21.80;12.67;;;7.90;99.90;;;;;;5066500;28;20310;-47
2022/12/25 14:24:00;;;;;;;26.03;15.97;;;7.90;99.90;;;;;;5060842;28;20231;-50
2022/12/25 14:26:31;;;;;;;27.60;15.47;;;7.90;99.90;;;;;;5062188;28;20228;-50
2022/12/25 14:29:09;;;;;;;20.43;12.93;;;7.80;99.90;;;;;;5059737;28;20239;-50
2022/12/25 14:31:45;;;;;;;16.93;12.77;;;7.90;99.90;;;;;;5061685;28;21519;-51
2022/12/25 14:34:17;;;;;;;22.07;13.73;;;7.80;99.90;;;;;;5063215;28;20269;-51
2022/12/25 14:36:45;;;;;;;23.13;12.70;;;7.90;99.90;;;;;;5067910;28;21540;-48
2022/12/25 14:39:30;;;;;;;17.57;12.23;;;7.90;99.90;;;;;;5063731;28;20224;-52
2022/12/25 14:42:02;;;;;;;21.53;12.57;;;7.90;99.90;;;;;;5059379;28;20625;-48
2022/12/25 14:44:35;;;;;;;23.33;13.10;;;7.90;99.90;;;;;;5059398;28;20228;-50
2022/12/25 14:47:05;;;;;;;23.80;13.40;;;7.90;99.90;;;;;;5060925;28;20690;-51
2022/12/25 14:49:33;;;;;;;18.70;13.50;;;7.90;99.90;;;;;;5066645;28;20243;-51
2022/12/25 14:52:08;;;;;;;19.27;11.93;;;7.90;99.90;;;;;;5068503;28;20258;-49